sensor_id;sensor_type;location;lat;lon;timestamp;P1;durP1;ratioP1;P2;durP2;ratioP2
2225;SDS011;1119;48.288;8.726;2022-12-18T00:01:20;10.50;;;9.68;;
2225;SDS011;1119;48.288;8.726;2022-12-18T00:03:50;15.20;;;10.85;;
2225;SDS011;1119;48.288;8.726;2022-12-18T00:06:19;10.93;;;7.07;;
2225;SDS011;1119;48.288;8.726;2022-12-18T00:08:47;8.63;;;7.93;;
2225;SDS011;1119;48.288;8.726;2022-12-18T00:11:17;10.73;;;9.18;;
2225;SDS011;1119;48.288;8.726;2022-12-18T00:13:48;7.68;;;6.32;;
2225;SDS011;1119;48.288;8.726;2022-12-18T00:16:17;14.75;;;10.07;;
2225;SDS011;1119;48.288;8.726;2022-12-18T00:18:46;9.35;;;8.55;;
2225;SDS011;1119;48.288;8.726;2022-12-18T00:21:14;10.80;;;7.50;;
2225;SDS011;1119;48.288;8.726;2022-12-18T00:23:43;13.90;;;10.57;;
2225;SDS011;1119;48.288;8.726;2022-12-18T00:26:12;30.23;;;11.85;;
2225;SDS011;1119;48.288;8.726;2022-12-18T00:28:42;13.25;;;9.73;;
2225;SDS011;1119;48.288;8.726;2022-12-18T00:31:11;13.32;;;7.72;;
2225;SDS011;1119;48.288;8.726;2022-12-18T00:33:41;11.80;;;7.22;;
2225;SDS011;1119;48.288;8.726;2022-12-18T00:36:09;14.00;;;9.93;;
2225;SDS011;1119;48.288;8.726;2022-12-18T00:38:39;10.30;;;7.55;;
2225;SDS011;1119;48.288;8.726;2022-12-18T00:41:09;15.90;;;10.55;;
2225;SDS011;1119;48.288;8.726;2022-12-18T00:43:38;24.15;;;11.60;;
2225;SDS011;1119;48.288;8.726;2022-12-18T00:46:06;15.93;;;10.40;;
2225;SDS011;1119;48.288;8.726;2022-12-18T00:48:34;13.55;;;8.40;;
2225;SDS011;1119;48.288;8.726;2022-12-18T00:51:01;15.65;;;8.48;;
2225;SDS011;1119;48.288;8.726;2022-12-18T00:53:28;11.95;;;5.68;;
2225;SDS011;1119;48.288;8.726;2022-12-18T00:55:56;12.45;;;8.32;;
2225;SDS011;1119;48.288;8.726;2022-12-18T00:58:23;12.05;;;9.27;;
2225;SDS011;1119;48.288;8.726;2022-12-18T01:00:50;15.80;;;12.45;;
2225;SDS011;1119;48.288;8.726;2022-12-18T01:03:19;14.93;;;8.82;;
2225;SDS011;1119;48.288;8.726;2022-12-18T01:05:46;8.05;;;7.35;;
2225;SDS011;1119;48.288;8.726;2022-12-18T01:08:13;14.60;;;8.75;;
2225;SDS011;1119;48.288;8.726;2022-12-18T01:10:42;19.35;;;11.90;;
2225;SDS011;1119;48.288;8.726;2022-12-18T01:13:09;10.85;;;7.10;;
2225;SDS011;1119;48.288;8.726;2022-12-18T01:15:37;12.60;;;8.93;;
2225;SDS011;1119;48.288;8.726;2022-12-18T01:18:05;11.10;;;9.95;;
2225;SDS011;1119;48.288;8.726;2022-12-18T01:20:34;11.77;;;8.32;;
2225;SDS011;1119;48.288;8.726;2022-12-18T01:23:04;11.02;;;7.97;;
2225;SDS011;1119;48.288;8.726;2022-12-18T01:25:33;11.57;;;6.88;;
2225;SDS011;1119;48.288;8.726;2022-12-18T01:28:02;13.60;;;12.10;;
2225;SDS011;1119;48.288;8.726;2022-12-18T01:30:31;14.45;;;11.52;;
2225;SDS011;1119;48.288;8.726;2022-12-18T01:32:58;12.05;;;7.50;;
2225;SDS011;1119;48.288;8.726;2022-12-18T01:35:25;7.90;;;6.15;;
2225;SDS011;1119;48.288;8.726;2022-12-18T01:37:55;12.30;;;9.30;;
2225;SDS011;1119;48.288;8.726;2022-12-18T01:40:22;7.43;;;6.65;;
2225;SDS011;1119;48.288;8.726;2022-12-18T01:42:51;11.70;;;8.40;;
2225;SDS011;1119;48.288;8.726;2022-12-18T01:45:23;14.50;;;6.50;;
2225;SDS011;1119;48.288;8.726;2022-12-18T01:47:54;10.98;;;8.68;;
2225;SDS011;1119;48.288;8.726;2022-12-18T01:50:24;10.25;;;7.63;;
2225;SDS011;1119;48.288;8.726;2022-12-18T01:53:00;14.00;;;7.25;;
2225;SDS011;1119;48.288;8.726;2022-12-18T01:55:35;7.75;;;7.22;;
2225;SDS011;1119;48.288;8.726;2022-12-18T01:58:06;8.45;;;7.63;;
2225;SDS011;1119;48.288;8.726;2022-12-18T02:00:34;14.90;;;11.45;;
2225;SDS011;1119;48.288;8.726;2022-12-18T02:03:01;20.35;;;8.15;;
2225;SDS011;1119;48.288;8.726;2022-12-18T02:05:32;12.23;;;8.20;;
2225;SDS011;1119;48.288;8.726;2022-12-18T02:08:10;11.32;;;8.50;;
2225;SDS011;1119;48.288;8.726;2022-12-18T02:10:45;7.93;;;6.43;;
2225;SDS011;1119;48.288;8.726;2022-12-18T02:13:24;6.43;;;5.30;;
2225;SDS011;1119;48.288;8.726;2022-12-18T02:16:02;20.35;;;8.05;;
2225;SDS011;1119;48.288;8.726;2022-12-18T02:18:40;10.80;;;6.97;;
2225;SDS011;1119;48.288;8.726;2022-12-18T02:21:12;13.45;;;6.95;;
2225;SDS011;1119;48.288;8.726;2022-12-18T02:23:51;6.72;;;6.10;;
2225;SDS011;1119;48.288;8.726;2022-12-18T02:26:37;7.85;;;6.15;;
2225;SDS011;1119;48.288;8.726;2022-12-18T02:29:11;9.10;;;8.07;;
2225;SDS011;1119;48.288;8.726;2022-12-18T02:31:43;10.55;;;7.80;;
2225;SDS011;1119;48.288;8.726;2022-12-18T02:34:16;12.95;;;9.77;;
2225;SDS011;1119;48.288;8.726;2022-12-18T02:36:45;20.13;;;7.20;;
2225;SDS011;1119;48.288;8.726;2022-12-18T02:39:14;10.55;;;8.27;;
2225;SDS011;1119;48.288;8.726;2022-12-18T02:41:57;12.65;;;9.30;;
2225;SDS011;1119;48.288;8.726;2022-12-18T02:44:27;6.15;;;4.07;;
2225;SDS011;1119;48.288;8.726;2022-12-18T02:46:55;10.57;;;9.48;;
2225;SDS011;1119;48.288;8.726;2022-12-18T02:49:26;6.68;;;5.93;;
2225;SDS011;1119;48.288;8.726;2022-12-18T02:52:05;13.23;;;8.43;;
2225;SDS011;1119;48.288;8.726;2022-12-18T02:54:50;12.95;;;8.20;;
2225;SDS011;1119;48.288;8.726;2022-12-18T02:57:32;9.02;;;6.75;;
2225;SDS011;1119;48.288;8.726;2022-12-18T03:00:04;9.93;;;7.57;;
2225;SDS011;1119;48.288;8.726;2022-12-18T03:02:38;14.57;;;9.98;;
2225;SDS011;1119;48.288;8.726;2022-12-18T03:05:12;13.00;;;7.38;;
2225;SDS011;1119;48.288;8.726;2022-12-18T03:07:46;22.00;;;10.20;;
2225;SDS011;1119;48.288;8.726;2022-12-18T03:10:20;8.90;;;8.10;;
2225;SDS011;1119;48.288;8.726;2022-12-18T03:12:54;8.35;;;7.57;;
2225;SDS011;1119;48.288;8.726;2022-12-18T03:15:30;10.02;;;7.60;;
2225;SDS011;1119;48.288;8.726;2022-12-18T03:18:09;12.20;;;6.72;;
2225;SDS011;1119;48.288;8.726;2022-12-18T03:20:40;11.38;;;7.72;;
2225;SDS011;1119;48.288;8.726;2022-12-18T03:23:15;10.65;;;6.43;;
2225;SDS011;1119;48.288;8.726;2022-12-18T03:25:48;10.13;;;8.00;;
2225;SDS011;1119;48.288;8.726;2022-12-18T03:28:23;9.23;;;5.70;;
2225;SDS011;1119;48.288;8.726;2022-12-18T03:30:58;11.60;;;8.63;;
2225;SDS011;1119;48.288;8.726;2022-12-18T03:33:28;13.32;;;7.72;;
2225;SDS011;1119;48.288;8.726;2022-12-18T03:36:01;19.08;;;11.45;;
2225;SDS011;1119;48.288;8.726;2022-12-18T03:38:29;10.13;;;9.30;;
2225;SDS011;1119;48.288;8.726;2022-12-18T03:40:58;14.50;;;9.30;;
2225;SDS011;1119;48.288;8.726;2022-12-18T03:43:42;10.13;;;8.73;;
2225;SDS011;1119;48.288;8.726;2022-12-18T03:46:16;11.07;;;8.45;;
2225;SDS011;1119;48.288;8.726;2022-12-18T03:48:56;12.38;;;7.05;;
2225;SDS011;1119;48.288;8.726;2022-12-18T03:51:31;18.73;;;8.82;;
2225;SDS011;1119;48.288;8.726;2022-12-18T03:54:07;7.75;;;6.30;;
2225;SDS011;1119;48.288;8.726;2022-12-18T03:56:43;13.55;;;9.52;;
2225;SDS011;1119;48.288;8.726;2022-12-18T03:59:16;9.23;;;7.75;;
2225;SDS011;1119;48.288;8.726;2022-12-18T04:01:46;19.27;;;9.68;;
2225;SDS011;1119;48.288;8.726;2022-12-18T04:04:16;11.00;;;8.13;;
2225;SDS011;1119;48.288;8.726;2022-12-18T04:06:46;15.75;;;8.45;;
2225;SDS011;1119;48.288;8.726;2022-12-18T04:09:17;16.20;;;7.82;;
2225;SDS011;1119;48.288;8.726;2022-12-18T04:11:46;24.52;;;9.63;;
2225;SDS011;1119;48.288;8.726;2022-12-18T04:14:16;10.32;;;7.30;;
2225;SDS011;1119;48.288;8.726;2022-12-18T04:16:48;12.43;;;7.63;;
2225;SDS011;1119;48.288;8.726;2022-12-18T04:19:18;14.75;;;9.60;;
2225;SDS011;1119;48.288;8.726;2022-12-18T04:21:49;17.08;;;9.43;;
2225;SDS011;1119;48.288;8.726;2022-12-18T04:24:17;13.85;;;9.32;;
2225;SDS011;1119;48.288;8.726;2022-12-18T04:26:53;10.38;;;7.63;;
2225;SDS011;1119;48.288;8.726;2022-12-18T04:29:25;7.25;;;5.72;;
2225;SDS011;1119;48.288;8.726;2022-12-18T04:31:53;12.85;;;8.13;;
2225;SDS011;1119;48.288;8.726;2022-12-18T04:34:22;8.98;;;6.55;;
2225;SDS011;1119;48.288;8.726;2022-12-18T04:36:52;10.95;;;7.05;;
2225;SDS011;1119;48.288;8.726;2022-12-18T04:39:21;11.50;;;7.55;;
2225;SDS011;1119;48.288;8.726;2022-12-18T04:41:52;15.38;;;8.00;;
2225;SDS011;1119;48.288;8.726;2022-12-18T04:44:19;16.33;;;9.32;;
2225;SDS011;1119;48.288;8.726;2022-12-18T04:46:48;19.45;;;9.77;;
2225;SDS011;1119;48.288;8.726;2022-12-18T04:49:16;11.30;;;6.00;;
2225;SDS011;1119;48.288;8.726;2022-12-18T04:51:43;6.50;;;5.40;;
2225;SDS011;1119;48.288;8.726;2022-12-18T04:54:11;13.98;;;9.07;;
2225;SDS011;1119;48.288;8.726;2022-12-18T04:56:39;9.73;;;8.25;;
2225;SDS011;1119;48.288;8.726;2022-12-18T04:59:06;14.55;;;7.45;;
2225;SDS011;1119;48.288;8.726;2022-12-18T05:01:34;9.23;;;5.72;;
2225;SDS011;1119;48.288;8.726;2022-12-18T05:04:03;13.57;;;8.43;;
2225;SDS011;1119;48.288;8.726;2022-12-18T05:06:31;14.98;;;6.85;;
2225;SDS011;1119;48.288;8.726;2022-12-18T05:08:58;11.18;;;8.18;;
2225;SDS011;1119;48.288;8.726;2022-12-18T05:11:26;11.52;;;7.82;;
2225;SDS011;1119;48.288;8.726;2022-12-18T05:13:53;11.02;;;7.40;;
2225;SDS011;1119;48.288;8.726;2022-12-18T05:16:21;10.80;;;6.20;;
2225;SDS011;1119;48.288;8.726;2022-12-18T05:18:48;9.13;;;5.63;;
2225;SDS011;1119;48.288;8.726;2022-12-18T05:21:17;18.67;;;10.40;;
2225;SDS011;1119;48.288;8.726;2022-12-18T05:23:44;10.88;;;5.15;;
2225;SDS011;1119;48.288;8.726;2022-12-18T05:26:14;9.27;;;8.45;;
2225;SDS011;1119;48.288;8.726;2022-12-18T05:28:44;19.73;;;8.48;;
2225;SDS011;1119;48.288;8.726;2022-12-18T05:31:12;8.60;;;5.75;;
2225;SDS011;1119;48.288;8.726;2022-12-18T05:33:40;6.93;;;6.30;;
2225;SDS011;1119;48.288;8.726;2022-12-18T05:36:08;10.52;;;8.05;;
2225;SDS011;1119;48.288;8.726;2022-12-18T05:38:38;9.68;;;6.78;;
2225;SDS011;1119;48.288;8.726;2022-12-18T05:41:06;9.27;;;6.88;;
2225;SDS011;1119;48.288;8.726;2022-12-18T05:43:35;14.23;;;7.93;;
2225;SDS011;1119;48.288;8.726;2022-12-18T05:46:05;8.10;;;6.00;;
2225;SDS011;1119;48.288;8.726;2022-12-18T05:48:33;9.23;;;7.03;;
2225;SDS011;1119;48.288;8.726;2022-12-18T05:51:05;9.38;;;7.15;;
2225;SDS011;1119;48.288;8.726;2022-12-18T05:53:35;15.43;;;7.47;;
2225;SDS011;1119;48.288;8.726;2022-12-18T05:56:05;9.07;;;7.43;;
2225;SDS011;1119;48.288;8.726;2022-12-18T05:58:36;11.82;;;7.30;;
2225;SDS011;1119;48.288;8.726;2022-12-18T06:01:07;6.60;;;6.10;;
2225;SDS011;1119;48.288;8.726;2022-12-18T06:03:37;15.00;;;7.25;;
2225;SDS011;1119;48.288;8.726;2022-12-18T06:06:12;11.82;;;8.20;;
2225;SDS011;1119;48.288;8.726;2022-12-18T06:08:42;8.90;;;5.70;;
2225;SDS011;1119;48.288;8.726;2022-12-18T06:11:09;6.72;;;5.45;;
2225;SDS011;1119;48.288;8.726;2022-12-18T06:13:37;6.65;;;6.13;;
2225;SDS011;1119;48.288;8.726;2022-12-18T06:16:05;12.75;;;4.93;;
2225;SDS011;1119;48.288;8.726;2022-12-18T06:18:33;7.28;;;6.70;;
2225;SDS011;1119;48.288;8.726;2022-12-18T06:21:04;8.52;;;6.75;;
2225;SDS011;1119;48.288;8.726;2022-12-18T06:23:32;4.72;;;3.85;;
2225;SDS011;1119;48.288;8.726;2022-12-18T06:26:04;7.60;;;6.97;;
2225;SDS011;1119;48.288;8.726;2022-12-18T06:28:32;12.35;;;8.13;;
2225;SDS011;1119;48.288;8.726;2022-12-18T06:31:00;10.75;;;4.78;;
2225;SDS011;1119;48.288;8.726;2022-12-18T06:33:29;4.78;;;4.47;;
2225;SDS011;1119;48.288;8.726;2022-12-18T06:35:59;9.77;;;8.88;;
2225;SDS011;1119;48.288;8.726;2022-12-18T06:38:27;14.60;;;8.98;;
2225;SDS011;1119;48.288;8.726;2022-12-18T06:40:55;8.43;;;6.93;;
2225;SDS011;1119;48.288;8.726;2022-12-18T06:43:24;6.28;;;5.35;;
2225;SDS011;1119;48.288;8.726;2022-12-18T06:45:57;18.52;;;8.18;;
2225;SDS011;1119;48.288;8.726;2022-12-18T06:48:26;10.02;;;7.82;;
2225;SDS011;1119;48.288;8.726;2022-12-18T06:50:53;8.68;;;4.88;;
2225;SDS011;1119;48.288;8.726;2022-12-18T06:53:21;13.15;;;8.68;;
2225;SDS011;1119;48.288;8.726;2022-12-18T06:55:48;14.82;;;6.95;;
2225;SDS011;1119;48.288;8.726;2022-12-18T06:58:16;11.15;;;7.65;;
2225;SDS011;1119;48.288;8.726;2022-12-18T07:00:45;8.63;;;7.53;;
2225;SDS011;1119;48.288;8.726;2022-12-18T07:03:12;13.30;;;8.48;;
2225;SDS011;1119;48.288;8.726;2022-12-18T07:05:40;8.07;;;6.25;;
2225;SDS011;1119;48.288;8.726;2022-12-18T07:08:07;13.43;;;8.68;;
2225;SDS011;1119;48.288;8.726;2022-12-18T07:10:40;14.10;;;8.80;;
2225;SDS011;1119;48.288;8.726;2022-12-18T07:13:08;10.90;;;7.60;;
2225;SDS011;1119;48.288;8.726;2022-12-18T07:15:36;6.70;;;6.05;;
2225;SDS011;1119;48.288;8.726;2022-12-18T07:18:05;14.73;;;9.70;;
2225;SDS011;1119;48.288;8.726;2022-12-18T07:20:32;11.93;;;7.00;;
2225;SDS011;1119;48.288;8.726;2022-12-18T07:23:01;22.55;;;7.47;;
2225;SDS011;1119;48.288;8.726;2022-12-18T07:25:29;9.35;;;8.43;;
2225;SDS011;1119;48.288;8.726;2022-12-18T07:27:56;8.70;;;5.85;;
2225;SDS011;1119;48.288;8.726;2022-12-18T07:30:23;20.77;;;10.40;;
2225;SDS011;1119;48.288;8.726;2022-12-18T07:32:51;9.35;;;6.13;;
2225;SDS011;1119;48.288;8.726;2022-12-18T07:35:20;13.00;;;7.68;;
2225;SDS011;1119;48.288;8.726;2022-12-18T07:37:47;18.30;;;8.45;;
2225;SDS011;1119;48.288;8.726;2022-12-18T07:40:15;7.20;;;6.68;;
2225;SDS011;1119;48.288;8.726;2022-12-18T07:42:43;9.98;;;7.43;;
2225;SDS011;1119;48.288;8.726;2022-12-18T07:45:11;13.75;;;9.55;;
2225;SDS011;1119;48.288;8.726;2022-12-18T07:47:38;22.42;;;9.60;;
2225;SDS011;1119;48.288;8.726;2022-12-18T07:50:06;6.80;;;5.55;;
2225;SDS011;1119;48.288;8.726;2022-12-18T07:52:36;14.30;;;7.55;;
2225;SDS011;1119;48.288;8.726;2022-12-18T07:55:04;15.52;;;7.75;;
2225;SDS011;1119;48.288;8.726;2022-12-18T07:57:32;9.82;;;8.50;;
2225;SDS011;1119;48.288;8.726;2022-12-18T07:59:59;10.75;;;8.70;;
2225;SDS011;1119;48.288;8.726;2022-12-18T08:02:37;15.02;;;9.63;;
2225;SDS011;1119;48.288;8.726;2022-12-18T08:05:05;19.58;;;10.27;;
2225;SDS011;1119;48.288;8.726;2022-12-18T08:07:35;12.55;;;7.70;;
2225;SDS011;1119;48.288;8.726;2022-12-18T08:10:04;14.05;;;8.38;;
2225;SDS011;1119;48.288;8.726;2022-12-18T08:12:32;13.90;;;8.20;;
2225;SDS011;1119;48.288;8.726;2022-12-18T08:15:00;14.00;;;8.65;;
2225;SDS011;1119;48.288;8.726;2022-12-18T08:17:28;14.40;;;8.02;;
2225;SDS011;1119;48.288;8.726;2022-12-18T08:19:56;15.65;;;9.65;;
2225;SDS011;1119;48.288;8.726;2022-12-18T08:22:24;20.55;;;9.68;;
2225;SDS011;1119;48.288;8.726;2022-12-18T08:24:53;16.50;;;8.25;;
2225;SDS011;1119;48.288;8.726;2022-12-18T08:27:21;11.73;;;10.15;;
2225;SDS011;1119;48.288;8.726;2022-12-18T08:29:48;13.27;;;9.52;;
2225;SDS011;1119;48.288;8.726;2022-12-18T08:32:16;12.35;;;8.48;;
2225;SDS011;1119;48.288;8.726;2022-12-18T08:34:44;8.85;;;7.93;;
2225;SDS011;1119;48.288;8.726;2022-12-18T08:37:11;18.95;;;9.55;;
2225;SDS011;1119;48.288;8.726;2022-12-18T08:39:39;15.73;;;10.18;;
2225;SDS011;1119;48.288;8.726;2022-12-18T08:42:08;20.13;;;9.68;;
2225;SDS011;1119;48.288;8.726;2022-12-18T08:44:53;20.55;;;13.85;;
2225;SDS011;1119;48.288;8.726;2022-12-18T08:47:21;21.35;;;13.07;;
2225;SDS011;1119;48.288;8.726;2022-12-18T08:49:49;11.32;;;10.13;;
2225;SDS011;1119;48.288;8.726;2022-12-18T08:52:16;26.67;;;11.40;;
2225;SDS011;1119;48.288;8.726;2022-12-18T08:54:44;16.00;;;9.25;;
2225;SDS011;1119;48.288;8.726;2022-12-18T08:57:13;12.00;;;8.25;;
2225;SDS011;1119;48.288;8.726;2022-12-18T08:59:41;17.52;;;9.23;;
2225;SDS011;1119;48.288;8.726;2022-12-18T09:02:09;18.50;;;10.15;;
2225;SDS011;1119;48.288;8.726;2022-12-18T09:04:37;12.65;;;9.50;;
2225;SDS011;1119;48.288;8.726;2022-12-18T09:07:05;17.70;;;10.43;;
2225;SDS011;1119;48.288;8.726;2022-12-18T09:09:33;15.45;;;10.75;;
2225;SDS011;1119;48.288;8.726;2022-12-18T09:12:00;12.25;;;10.75;;
2225;SDS011;1119;48.288;8.726;2022-12-18T09:14:30;13.43;;;8.25;;
2225;SDS011;1119;48.288;8.726;2022-12-18T09:16:57;14.38;;;9.93;;
2225;SDS011;1119;48.288;8.726;2022-12-18T09:19:25;17.17;;;10.48;;
2225;SDS011;1119;48.288;8.726;2022-12-18T09:21:53;16.40;;;9.07;;
2225;SDS011;1119;48.288;8.726;2022-12-18T09:24:21;14.27;;;11.60;;
2225;SDS011;1119;48.288;8.726;2022-12-18T09:26:48;21.52;;;11.82;;
2225;SDS011;1119;48.288;8.726;2022-12-18T09:29:19;24.63;;;11.50;;
2225;SDS011;1119;48.288;8.726;2022-12-18T09:31:48;16.13;;;10.35;;
2225;SDS011;1119;48.288;8.726;2022-12-18T09:34:15;18.35;;;9.98;;
2225;SDS011;1119;48.288;8.726;2022-12-18T09:36:43;17.02;;;10.15;;
2225;SDS011;1119;48.288;8.726;2022-12-18T09:39:12;13.15;;;8.43;;
2225;SDS011;1119;48.288;8.726;2022-12-18T09:41:41;15.95;;;10.23;;
2225;SDS011;1119;48.288;8.726;2022-12-18T09:44:13;15.50;;;9.75;;
2225;SDS011;1119;48.288;8.726;2022-12-18T09:46:45;17.33;;;11.90;;
2225;SDS011;1119;48.288;8.726;2022-12-18T09:49:18;21.02;;;10.30;;
2225;SDS011;1119;48.288;8.726;2022-12-18T09:51:49;23.63;;;10.98;;
2225;SDS011;1119;48.288;8.726;2022-12-18T09:54:20;16.58;;;8.45;;
2225;SDS011;1119;48.288;8.726;2022-12-18T09:56:50;18.08;;;10.20;;
2225;SDS011;1119;48.288;8.726;2022-12-18T09:59:21;29.42;;;11.93;;
2225;SDS011;1119;48.288;8.726;2022-12-18T10:01:51;18.38;;;12.20;;
2225;SDS011;1119;48.288;8.726;2022-12-18T10:04:19;19.63;;;8.65;;
2225;SDS011;1119;48.288;8.726;2022-12-18T10:06:49;17.23;;;10.20;;
2225;SDS011;1119;48.288;8.726;2022-12-18T10:09:24;22.75;;;10.73;;
2225;SDS011;1119;48.288;8.726;2022-12-18T10:11:57;17.55;;;10.15;;
2225;SDS011;1119;48.288;8.726;2022-12-18T10:14:30;22.00;;;12.63;;
2225;SDS011;1119;48.288;8.726;2022-12-18T10:17:05;19.50;;;12.07;;
2225;SDS011;1119;48.288;8.726;2022-12-18T10:19:39;23.65;;;12.07;;
2225;SDS011;1119;48.288;8.726;2022-12-18T10:22:20;18.67;;;11.10;;
2225;SDS011;1119;48.288;8.726;2022-12-18T10:24:54;20.63;;;11.63;;
2225;SDS011;1119;48.288;8.726;2022-12-18T10:27:25;19.63;;;12.95;;
2225;SDS011;1119;48.288;8.726;2022-12-18T10:29:54;16.88;;;11.20;;
2225;SDS011;1119;48.288;8.726;2022-12-18T10:32:24;27.33;;;12.75;;
2225;SDS011;1119;48.288;8.726;2022-12-18T10:34:53;29.85;;;15.68;;
2225;SDS011;1119;48.288;8.726;2022-12-18T10:37:24;20.20;;;12.05;;
2225;SDS011;1119;48.288;8.726;2022-12-18T10:40:08;23.17;;;13.02;;
2225;SDS011;1119;48.288;8.726;2022-12-18T10:42:38;22.38;;;13.93;;
2225;SDS011;1119;48.288;8.726;2022-12-18T10:45:11;17.73;;;10.77;;
2225;SDS011;1119;48.288;8.726;2022-12-18T10:47:46;21.88;;;13.55;;
2225;SDS011;1119;48.288;8.726;2022-12-18T10:50:18;28.48;;;14.20;;
2225;SDS011;1119;48.288;8.726;2022-12-18T10:52:53;26.10;;;14.07;;
2225;SDS011;1119;48.288;8.726;2022-12-18T10:55:22;28.40;;;16.50;;
2225;SDS011;1119;48.288;8.726;2022-12-18T10:57:54;24.45;;;12.52;;
2225;SDS011;1119;48.288;8.726;2022-12-18T11:00:40;22.42;;;13.52;;
2225;SDS011;1119;48.288;8.726;2022-12-18T11:03:15;23.00;;;13.95;;
2225;SDS011;1119;48.288;8.726;2022-12-18T11:06:01;23.95;;;13.75;;
2225;SDS011;1119;48.288;8.726;2022-12-18T11:08:32;24.75;;;10.77;;
2225;SDS011;1119;48.288;8.726;2022-12-18T11:11:00;29.55;;;15.98;;
2225;SDS011;1119;48.288;8.726;2022-12-18T11:13:29;21.27;;;13.27;;
2225;SDS011;1119;48.288;8.726;2022-12-18T11:15:57;25.35;;;13.77;;
2225;SDS011;1119;48.288;8.726;2022-12-18T11:18:28;13.95;;;9.50;;
2225;SDS011;1119;48.288;8.726;2022-12-18T11:20:57;12.85;;;11.50;;
2225;SDS011;1119;48.288;8.726;2022-12-18T11:23:32;21.88;;;13.23;;
2225;SDS011;1119;48.288;8.726;2022-12-18T11:26:02;23.23;;;10.98;;
2225;SDS011;1119;48.288;8.726;2022-12-18T11:28:35;16.58;;;12.13;;
2225;SDS011;1119;48.288;8.726;2022-12-18T11:31:15;22.92;;;13.30;;
2225;SDS011;1119;48.288;8.726;2022-12-18T11:33:50;26.02;;;15.30;;
2225;SDS011;1119;48.288;8.726;2022-12-18T11:36:24;28.95;;;13.57;;
2225;SDS011;1119;48.288;8.726;2022-12-18T11:38:56;30.40;;;14.65;;
2225;SDS011;1119;48.288;8.726;2022-12-18T11:41:35;23.65;;;13.55;;
2225;SDS011;1119;48.288;8.726;2022-12-18T11:44:28;21.30;;;14.63;;
2225;SDS011;1119;48.288;8.726;2022-12-18T11:47:07;23.35;;;13.43;;
2225;SDS011;1119;48.288;8.726;2022-12-18T11:49:44;25.02;;;13.48;;
2225;SDS011;1119;48.288;8.726;2022-12-18T11:52:16;29.80;;;15.57;;
2225;SDS011;1119;48.288;8.726;2022-12-18T11:54:50;27.75;;;15.15;;
2225;SDS011;1119;48.288;8.726;2022-12-18T11:57:23;33.67;;;16.08;;
2225;SDS011;1119;48.288;8.726;2022-12-18T12:00:02;29.05;;;16.55;;
2225;SDS011;1119;48.288;8.726;2022-12-18T12:02:43;34.55;;;15.10;;
2225;SDS011;1119;48.288;8.726;2022-12-18T12:05:49;23.08;;;12.75;;
2225;SDS011;1119;48.288;8.726;2022-12-18T12:08:30;27.10;;;15.98;;
2225;SDS011;1119;48.288;8.726;2022-12-18T12:11:15;26.40;;;16.73;;
2225;SDS011;1119;48.288;8.726;2022-12-18T12:13:53;21.73;;;15.45;;
2225;SDS011;1119;48.288;8.726;2022-12-18T12:16:37;28.35;;;17.50;;
2225;SDS011;1119;48.288;8.726;2022-12-18T12:19:17;31.63;;;16.45;;
2225;SDS011;1119;48.288;8.726;2022-12-18T12:22:03;27.60;;;17.48;;
2225;SDS011;1119;48.288;8.726;2022-12-18T12:24:39;24.58;;;14.73;;
2225;SDS011;1119;48.288;8.726;2022-12-18T12:27:21;17.13;;;13.00;;
2225;SDS011;1119;48.288;8.726;2022-12-18T12:30:00;23.52;;;13.00;;
2225;SDS011;1119;48.288;8.726;2022-12-18T12:32:51;25.58;;;16.48;;
2225;SDS011;1119;48.288;8.726;2022-12-18T12:35:42;22.90;;;14.45;;
2225;SDS011;1119;48.288;8.726;2022-12-18T12:38:18;25.75;;;13.63;;
2225;SDS011;1119;48.288;8.726;2022-12-18T12:40:51;31.48;;;17.00;;
2225;SDS011;1119;48.288;8.726;2022-12-18T12:43:27;27.13;;;17.20;;
2225;SDS011;1119;48.288;8.726;2022-12-18T12:46:03;24.90;;;16.95;;
2225;SDS011;1119;48.288;8.726;2022-12-18T12:48:40;30.77;;;16.30;;
2225;SDS011;1119;48.288;8.726;2022-12-18T12:51:12;33.60;;;19.40;;
2225;SDS011;1119;48.288;8.726;2022-12-18T12:53:45;32.40;;;15.93;;
2225;SDS011;1119;48.288;8.726;2022-12-18T12:56:14;21.98;;;14.00;;
2225;SDS011;1119;48.288;8.726;2022-12-18T12:58:46;35.60;;;16.83;;
2225;SDS011;1119;48.288;8.726;2022-12-18T13:01:26;28.33;;;16.05;;
2225;SDS011;1119;48.288;8.726;2022-12-18T13:04:03;23.33;;;14.77;;
2225;SDS011;1119;48.288;8.726;2022-12-18T13:06:43;20.27;;;11.80;;
2225;SDS011;1119;48.288;8.726;2022-12-18T13:09:18;20.17;;;10.63;;
2225;SDS011;1119;48.288;8.726;2022-12-18T13:11:46;31.05;;;17.00;;
2225;SDS011;1119;48.288;8.726;2022-12-18T13:14:35;26.52;;;13.48;;
2225;SDS011;1119;48.288;8.726;2022-12-18T13:17:26;23.15;;;13.20;;
2225;SDS011;1119;48.288;8.726;2022-12-18T13:20:04;19.73;;;13.93;;
2225;SDS011;1119;48.288;8.726;2022-12-18T13:22:39;35.05;;;14.23;;
2225;SDS011;1119;48.288;8.726;2022-12-18T13:28:03;20.13;;;13.77;;
2225;SDS011;1119;48.288;8.726;2022-12-18T13:46:42;19.52;;;13.23;;
2225;SDS011;1119;48.288;8.726;2022-12-18T13:49:21;31.20;;;17.70;;
2225;SDS011;1119;48.288;8.726;2022-12-18T13:52:00;28.23;;;14.35;;
2225;SDS011;1119;48.288;8.726;2022-12-18T13:54:30;26.13;;;14.32;;
2225;SDS011;1119;48.288;8.726;2022-12-18T13:57:02;22.50;;;14.40;;
2225;SDS011;1119;48.288;8.726;2022-12-18T13:59:33;33.78;;;15.95;;
2225;SDS011;1119;48.288;8.726;2022-12-18T14:02:11;27.83;;;13.32;;
2225;SDS011;1119;48.288;8.726;2022-12-18T14:10:11;18.15;;;12.70;;
2225;SDS011;1119;48.288;8.726;2022-12-18T14:12:44;20.55;;;13.48;;
2225;SDS011;1119;48.288;8.726;2022-12-18T14:15:27;27.63;;;16.05;;
2225;SDS011;1119;48.288;8.726;2022-12-18T14:18:01;51.60;;;13.85;;
2225;SDS011;1119;48.288;8.726;2022-12-18T14:20:43;27.08;;;15.65;;
2225;SDS011;1119;48.288;8.726;2022-12-18T14:23:24;25.80;;;15.80;;
2225;SDS011;1119;48.288;8.726;2022-12-18T14:25:55;22.20;;;14.75;;
2225;SDS011;1119;48.288;8.726;2022-12-18T14:28:23;37.08;;;19.23;;
2225;SDS011;1119;48.288;8.726;2022-12-18T14:30:51;24.70;;;16.00;;
2225;SDS011;1119;48.288;8.726;2022-12-18T14:33:21;17.60;;;13.30;;
2225;SDS011;1119;48.288;8.726;2022-12-18T14:35:55;28.15;;;16.08;;
2225;SDS011;1119;48.288;8.726;2022-12-18T14:38:27;30.17;;;16.10;;
2225;SDS011;1119;48.288;8.726;2022-12-18T14:40:56;27.05;;;16.58;;
2225;SDS011;1119;48.288;8.726;2022-12-18T14:43:25;32.22;;;14.80;;
2225;SDS011;1119;48.288;8.726;2022-12-18T14:45:54;30.55;;;16.95;;
2225;SDS011;1119;48.288;8.726;2022-12-18T14:48:30;31.33;;;15.38;;
2225;SDS011;1119;48.288;8.726;2022-12-18T14:51:03;23.23;;;12.93;;
2225;SDS011;1119;48.288;8.726;2022-12-18T14:53:34;34.22;;;19.45;;
2225;SDS011;1119;48.288;8.726;2022-12-18T14:56:12;26.90;;;15.15;;
2225;SDS011;1119;48.288;8.726;2022-12-18T14:58:47;19.55;;;10.35;;
2225;SDS011;1119;48.288;8.726;2022-12-18T15:01:22;20.40;;;15.45;;
2225;SDS011;1119;48.288;8.726;2022-12-18T15:04:27;23.48;;;14.40;;
2225;SDS011;1119;48.288;8.726;2022-12-18T15:07:09;31.35;;;19.15;;
2225;SDS011;1119;48.288;8.726;2022-12-18T18:45:27;23.23;;;15.35;;
2225;SDS011;1119;48.288;8.726;2022-12-18T18:47:55;19.80;;;11.65;;
2225;SDS011;1119;48.288;8.726;2022-12-18T18:50:24;19.10;;;11.52;;
2225;SDS011;1119;48.288;8.726;2022-12-18T18:52:53;20.25;;;11.75;;
2225;SDS011;1119;48.288;8.726;2022-12-18T18:55:20;13.70;;;9.80;;
2225;SDS011;1119;48.288;8.726;2022-12-18T18:57:47;23.50;;;16.60;;
2225;SDS011;1119;48.288;8.726;2022-12-18T19:00:15;21.05;;;12.20;;
2225;SDS011;1119;48.288;8.726;2022-12-18T19:02:44;17.08;;;11.55;;
2225;SDS011;1119;48.288;8.726;2022-12-18T19:05:13;26.15;;;12.30;;
2225;SDS011;1119;48.288;8.726;2022-12-18T19:07:41;23.08;;;14.70;;
2225;SDS011;1119;48.288;8.726;2022-12-18T19:10:09;28.98;;;15.38;;
2225;SDS011;1119;48.288;8.726;2022-12-18T19:12:37;20.42;;;14.35;;
2225;SDS011;1119;48.288;8.726;2022-12-18T19:15:22;17.52;;;10.40;;
2225;SDS011;1119;48.288;8.726;2022-12-18T19:17:50;33.13;;;16.23;;
2225;SDS011;1119;48.288;8.726;2022-12-18T19:20:19;11.88;;;9.32;;
2225;SDS011;1119;48.288;8.726;2022-12-18T19:22:47;22.23;;;9.75;;
2225;SDS011;1119;48.288;8.726;2022-12-18T19:25:15;27.20;;;14.85;;